sensor_id;sensor_type;location;lat;lon;timestamp;temperature;humidity
8422;DHT22;4248;48.196;10.924;2023-11-19T00:02:23;8.20;60.80
8422;DHT22;4248;48.196;10.924;2023-11-19T00:04:49;8.30;61.00
8422;DHT22;4248;48.196;10.924;2023-11-19T00:07:14;8.30;61.00
8422;DHT22;4248;48.196;10.924;2023-11-19T00:09:40;8.40;60.00
8422;DHT22;4248;48.196;10.924;2023-11-19T00:12:06;8.40;61.00
8422;DHT22;4248;48.196;10.924;2023-11-19T00:14:33;8.40;61.00
8422;DHT22;4248;48.196;10.924;2023-11-19T00:16:58;8.50;61.10
8422;DHT22;4248;48.196;10.924;2023-11-19T00:19:24;8.50;60.00
8422;DHT22;4248;48.196;10.924;2023-11-19T00:21:50;8.50;61.10
8422;DHT22;4248;48.196;10.924;2023-11-19T00:24:15;8.50;61.20
8422;DHT22;4248;48.196;10.924;2023-11-19T00:26:42;8.50;61.60
8422;DHT22;4248;48.196;10.924;2023-11-19T00:29:08;8.60;60.70
8422;DHT22;4248;48.196;10.924;2023-11-19T00:31:34;8.60;61.80
8422;DHT22;4248;48.196;10.924;2023-11-19T00:34:00;8.50;62.30
8422;DHT22;4248;48.196;10.924;2023-11-19T00:36:27;8.60;62.70
8422;DHT22;4248;48.196;10.924;2023-11-19T00:38:53;8.60;62.70
8422;DHT22;4248;48.196;10.924;2023-11-19T00:41:19;8.70;61.60
8422;DHT22;4248;48.196;10.924;2023-11-19T00:43:45;8.70;62.70
8422;DHT22;4248;48.196;10.924;2023-11-19T00:46:10;8.80;62.50
8422;DHT22;4248;48.196;10.924;2023-11-19T00:48:36;8.80;61.70
8422;DHT22;4248;48.196;10.924;2023-11-19T00:51:02;8.80;62.80
8422;DHT22;4248;48.196;10.924;2023-11-19T00:53:29;8.70;62.90
8422;DHT22;4248;48.196;10.924;2023-11-19T00:55:55;8.80;63.20
8422;DHT22;4248;48.196;10.924;2023-11-19T00:58:20;8.80;63.40
8422;DHT22;4248;48.196;10.924;2023-11-19T01:00:46;8.70;63.70
8422;DHT22;4248;48.196;10.924;2023-11-19T01:03:11;8.80;63.80
8422;DHT22;4248;48.196;10.924;2023-11-19T01:05:37;8.90;63.60
8422;DHT22;4248;48.196;10.924;2023-11-19T01:08:03;8.90;63.00
8422;DHT22;4248;48.196;10.924;2023-11-19T01:10:30;8.90;63.80
8422;DHT22;4248;48.196;10.924;2023-11-19T01:12:55;8.90;63.70
8422;DHT22;4248;48.196;10.924;2023-11-19T01:15:21;9.00;64.00
8422;DHT22;4248;48.196;10.924;2023-11-19T01:17:47;9.00;64.10
8422;DHT22;4248;48.196;10.924;2023-11-19T01:20:12;9.00;63.20
8422;DHT22;4248;48.196;10.924;2023-11-19T01:22:39;9.10;64.30
8422;DHT22;4248;48.196;10.924;2023-11-19T01:25:05;9.10;64.30
8422;DHT22;4248;48.196;10.924;2023-11-19T01:27:31;9.10;64.60
8422;DHT22;4248;48.196;10.924;2023-11-19T01:29:57;9.10;63.60
8422;DHT22;4248;48.196;10.924;2023-11-19T01:32:22;9.10;64.70
8422;DHT22;4248;48.196;10.924;2023-11-19T01:34:49;9.10;65.80
8422;DHT22;4248;48.196;10.924;2023-11-19T01:37:15;9.10;64.60
8422;DHT22;4248;48.196;10.924;2023-11-19T01:39:43;9.10;63.70
8422;DHT22;4248;48.196;10.924;2023-11-19T01:42:09;9.20;64.90
8422;DHT22;4248;48.196;10.924;2023-11-19T01:44:34;9.20;65.00
8422;DHT22;4248;48.196;10.924;2023-11-19T01:47:01;9.20;65.20
8422;DHT22;4248;48.196;10.924;2023-11-19T01:49:27;9.20;64.30
8422;DHT22;4248;48.196;10.924;2023-11-19T01:51:54;9.20;65.50
8422;DHT22;4248;48.196;10.924;2023-11-19T01:54:20;9.20;65.50
8422;DHT22;4248;48.196;10.924;2023-11-19T01:56:45;9.20;65.40
8422;DHT22;4248;48.196;10.924;2023-11-19T01:59:12;9.20;64.60
8422;DHT22;4248;48.196;10.924;2023-11-19T02:01:41;9.20;65.60
8422;DHT22;4248;48.196;10.924;2023-11-19T02:04:08;9.30;65.80
8422;DHT22;4248;48.196;10.924;2023-11-19T02:06:34;9.20;65.80
8422;DHT22;4248;48.196;10.924;2023-11-19T02:09:02;9.30;64.80
8422;DHT22;4248;48.196;10.924;2023-11-19T02:11:33;9.30;65.90
8422;DHT22;4248;48.196;10.924;2023-11-19T02:13:59;9.30;65.80
8422;DHT22;4248;48.196;10.924;2023-11-19T02:16:25;9.30;65.70
8422;DHT22;4248;48.196;10.924;2023-11-19T02:18:50;9.40;64.80
8422;DHT22;4248;48.196;10.924;2023-11-19T02:21:16;9.40;65.80
8422;DHT22;4248;48.196;10.924;2023-11-19T02:23:43;9.40;65.80
8422;DHT22;4248;48.196;10.924;2023-11-19T02:28:39;9.40;64.90
8422;DHT22;4248;48.196;10.924;2023-11-19T02:31:05;9.50;66.10
8422;DHT22;4248;48.196;10.924;2023-11-19T02:33:38;9.50;66.10
8422;DHT22;4248;48.196;10.924;2023-11-19T02:36:07;9.50;66.40
8422;DHT22;4248;48.196;10.924;2023-11-19T02:38:34;9.50;65.70
8422;DHT22;4248;48.196;10.924;2023-11-19T02:41:02;9.50;65.70
8422;DHT22;4248;48.196;10.924;2023-11-19T02:43:28;9.60;66.90
8422;DHT22;4248;48.196;10.924;2023-11-19T02:45:54;9.50;66.70
8422;DHT22;4248;48.196;10.924;2023-11-19T02:48:21;9.60;65.50
8422;DHT22;4248;48.196;10.924;2023-11-19T02:50:46;9.60;66.60
8422;DHT22;4248;48.196;10.924;2023-11-19T02:53:13;9.60;66.50
8422;DHT22;4248;48.196;10.924;2023-11-19T02:55:39;9.70;66.50
8422;DHT22;4248;48.196;10.924;2023-11-19T02:58:06;9.70;65.90
8422;DHT22;4248;48.196;10.924;2023-11-19T03:00:40;9.70;67.80
8422;DHT22;4248;48.196;10.924;2023-11-19T03:03:13;9.70;66.60
8422;DHT22;4248;48.196;10.924;2023-11-19T03:05:48;9.70;66.70
8422;DHT22;4248;48.196;10.924;2023-11-19T03:08:17;9.80;65.80
8422;DHT22;4248;48.196;10.924;2023-11-19T03:10:43;9.70;66.70
8422;DHT22;4248;48.196;10.924;2023-11-19T03:13:12;9.80;66.70
8422;DHT22;4248;48.196;10.924;2023-11-19T03:15:41;9.80;66.70
8422;DHT22;4248;48.196;10.924;2023-11-19T03:18:07;9.80;66.00
8422;DHT22;4248;48.196;10.924;2023-11-19T03:20:33;9.80;66.70
8422;DHT22;4248;48.196;10.924;2023-11-19T03:22:59;9.90;66.80
8422;DHT22;4248;48.196;10.924;2023-11-19T03:25:25;9.80;66.70
8422;DHT22;4248;48.196;10.924;2023-11-19T03:27:59;9.90;66.30
8422;DHT22;4248;48.196;10.924;2023-11-19T03:30:24;9.80;67.20
8422;DHT22;4248;48.196;10.924;2023-11-19T03:32:50;9.90;67.40
8422;DHT22;4248;48.196;10.924;2023-11-19T03:35:16;9.80;67.80
8422;DHT22;4248;48.196;10.924;2023-11-19T03:37:42;9.90;67.80
8422;DHT22;4248;48.196;10.924;2023-11-19T03:40:09;9.90;66.60
8422;DHT22;4248;48.196;10.924;2023-11-19T03:42:35;9.90;67.60
8422;DHT22;4248;48.196;10.924;2023-11-19T03:45:01;9.90;67.50
8422;DHT22;4248;48.196;10.924;2023-11-19T03:47:28;10.00;65.70
8422;DHT22;4248;48.196;10.924;2023-11-19T03:49:54;10.00;65.60
8422;DHT22;4248;48.196;10.924;2023-11-19T03:52:19;10.00;66.80
8422;DHT22;4248;48.196;10.924;2023-11-19T03:54:45;10.10;66.90
8422;DHT22;4248;48.196;10.924;2023-11-19T03:57:11;10.00;66.90
8422;DHT22;4248;48.196;10.924;2023-11-19T03:59:37;10.00;66.10
8422;DHT22;4248;48.196;10.924;2023-11-19T04:02:03;10.10;67.20
8422;DHT22;4248;48.196;10.924;2023-11-19T04:04:29;10.00;67.10
8422;DHT22;4248;48.196;10.924;2023-11-19T04:06:57;10.10;67.20
8422;DHT22;4248;48.196;10.924;2023-11-19T04:09:23;10.10;66.20
8422;DHT22;4248;48.196;10.924;2023-11-19T04:11:49;10.10;67.30
8422;DHT22;4248;48.196;10.924;2023-11-19T04:14:15;10.10;67.20
8422;DHT22;4248;48.196;10.924;2023-11-19T04:16:43;10.10;67.50
8422;DHT22;4248;48.196;10.924;2023-11-19T04:19:09;10.10;66.50
8422;DHT22;4248;48.196;10.924;2023-11-19T04:21:34;10.10;67.60
8422;DHT22;4248;48.196;10.924;2023-11-19T04:24:00;10.20;66.40
8422;DHT22;4248;48.196;10.924;2023-11-19T04:26:26;10.20;67.50
8422;DHT22;4248;48.196;10.924;2023-11-19T04:28:51;10.20;66.30
8422;DHT22;4248;48.196;10.924;2023-11-19T04:31:17;10.20;67.40
8422;DHT22;4248;48.196;10.924;2023-11-19T04:33:44;10.20;67.50
8422;DHT22;4248;48.196;10.924;2023-11-19T04:36:13;10.20;67.30
8422;DHT22;4248;48.196;10.924;2023-11-19T04:38:39;10.30;66.50
8422;DHT22;4248;48.196;10.924;2023-11-19T04:41:05;10.30;67.50
8422;DHT22;4248;48.196;10.924;2023-11-19T04:43:32;10.30;67.50
8422;DHT22;4248;48.196;10.924;2023-11-19T04:45:58;10.30;67.70
8422;DHT22;4248;48.196;10.924;2023-11-19T04:48:23;10.20;66.80
8422;DHT22;4248;48.196;10.924;2023-11-19T04:50:49;10.20;67.80
8422;DHT22;4248;48.196;10.924;2023-11-19T04:53:16;10.20;69.00
8422;DHT22;4248;48.196;10.924;2023-11-19T04:55:42;10.30;68.00
8422;DHT22;4248;48.196;10.924;2023-11-19T04:58:08;10.20;67.30
8422;DHT22;4248;48.196;10.924;2023-11-19T05:00:34;10.20;67.20
8422;DHT22;4248;48.196;10.924;2023-11-19T05:03:00;10.20;68.30
8422;DHT22;4248;48.196;10.924;2023-11-19T05:05:25;10.20;68.10
8422;DHT22;4248;48.196;10.924;2023-11-19T05:07:51;10.30;68.20
8422;DHT22;4248;48.196;10.924;2023-11-19T05:10:17;10.30;67.00
8422;DHT22;4248;48.196;10.924;2023-11-19T05:12:42;10.30;68.00
8422;DHT22;4248;48.196;10.924;2023-11-19T05:15:08;10.30;67.90
8422;DHT22;4248;48.196;10.924;2023-11-19T05:17:34;10.30;68.00
8422;DHT22;4248;48.196;10.924;2023-11-19T05:19:59;10.30;66.90
8422;DHT22;4248;48.196;10.924;2023-11-19T05:22:25;10.30;68.10
8422;DHT22;4248;48.196;10.924;2023-11-19T05:24:51;10.30;67.90
8422;DHT22;4248;48.196;10.924;2023-11-19T05:27:17;10.30;68.10
8422;DHT22;4248;48.196;10.924;2023-11-19T05:29:43;10.30;67.00
8422;DHT22;4248;48.196;10.924;2023-11-19T05:32:09;10.70;68.30
8422;DHT22;4248;48.196;10.924;2023-11-19T05:34:35;10.30;67.90
8422;DHT22;4248;48.196;10.924;2023-11-19T05:37:00;10.30;67.80
8422;DHT22;4248;48.196;10.924;2023-11-19T05:39:27;10.40;66.90
8422;DHT22;4248;48.196;10.924;2023-11-19T05:41:52;10.30;67.90
8422;DHT22;4248;48.196;10.924;2023-11-19T05:44:18;10.30;67.90
8422;DHT22;4248;48.196;10.924;2023-11-19T05:46:44;10.30;68.00
8422;DHT22;4248;48.196;10.924;2023-11-19T05:49:11;10.30;67.00
8422;DHT22;4248;48.196;10.924;2023-11-19T05:51:39;10.30;67.00
8422;DHT22;4248;48.196;10.924;2023-11-19T05:54:09;10.30;68.10
8422;DHT22;4248;48.196;10.924;2023-11-19T05:56:35;10.30;68.10
8422;DHT22;4248;48.196;10.924;2023-11-19T05:59:01;10.30;67.10
8422;DHT22;4248;48.196;10.924;2023-11-19T06:01:29;10.30;68.20
8422;DHT22;4248;48.196;10.924;2023-11-19T06:03:54;10.30;68.30
8422;DHT22;4248;48.196;10.924;2023-11-19T06:06:20;10.30;68.40
8422;DHT22;4248;48.196;10.924;2023-11-19T06:08:46;10.40;67.40
8422;DHT22;4248;48.196;10.924;2023-11-19T06:11:12;10.40;68.40
8422;DHT22;4248;48.196;10.924;2023-11-19T06:13:43;10.40;68.20
8422;DHT22;4248;48.196;10.924;2023-11-19T06:16:09;10.40;68.20
8422;DHT22;4248;48.196;10.924;2023-11-19T06:18:35;10.40;67.30
8422;DHT22;4248;48.196;10.924;2023-11-19T06:21:01;10.40;68.30
8422;DHT22;4248;48.196;10.924;2023-11-19T06:23:26;10.50;68.30
8422;DHT22;4248;48.196;10.924;2023-11-19T06:25:52;10.50;68.30
8422;DHT22;4248;48.196;10.924;2023-11-19T06:28:17;10.50;67.30
8422;DHT22;4248;48.196;10.924;2023-11-19T06:30:43;10.50;68.30
8422;DHT22;4248;48.196;10.924;2023-11-19T06:33:08;10.50;68.30
8422;DHT22;4248;48.196;10.924;2023-11-19T06:35:34;10.50;68.30
8422;DHT22;4248;48.196;10.924;2023-11-19T06:38:04;10.60;67.60
8422;DHT22;4248;48.196;10.924;2023-11-19T06:40:30;10.60;68.40
8422;DHT22;4248;48.196;10.924;2023-11-19T06:42:56;10.60;68.40
8422;DHT22;4248;48.196;10.924;2023-11-19T06:45:22;10.70;67.30
8422;DHT22;4248;48.196;10.924;2023-11-19T06:47:47;12.90;70.40
8422;DHT22;4248;48.196;10.924;2023-11-19T06:50:13;10.70;67.10
8422;DHT22;4248;48.196;10.924;2023-11-19T06:52:40;10.80;68.20
8422;DHT22;4248;48.196;10.924;2023-11-19T06:55:06;10.80;67.00
8422;DHT22;4248;48.196;10.924;2023-11-19T06:57:32;10.90;68.30
8422;DHT22;4248;48.196;10.924;2023-11-19T06:59:58;10.90;67.00
8422;DHT22;4248;48.196;10.924;2023-11-19T07:02:24;10.90;68.20
8422;DHT22;4248;48.196;10.924;2023-11-19T07:04:50;10.90;68.00
8422;DHT22;4248;48.196;10.924;2023-11-19T07:07:15;10.90;68.00
8422;DHT22;4248;48.196;10.924;2023-11-19T07:09:41;11.00;67.10
8422;DHT22;4248;48.196;10.924;2023-11-19T07:12:07;11.00;68.20
8422;DHT22;4248;48.196;10.924;2023-11-19T07:14:32;11.00;68.30
8422;DHT22;4248;48.196;10.924;2023-11-19T07:16:58;11.10;68.20
8422;DHT22;4248;48.196;10.924;2023-11-19T07:19:25;11.20;67.20
8422;DHT22;4248;48.196;10.924;2023-11-19T07:21:51;11.20;68.20
8422;DHT22;4248;48.196;10.924;2023-11-19T07:24:20;11.20;67.80
8422;DHT22;4248;48.196;10.924;2023-11-19T07:26:47;11.30;67.80
8422;DHT22;4248;48.196;10.924;2023-11-19T07:29:13;11.40;66.70
8422;DHT22;4248;48.196;10.924;2023-11-19T07:31:40;11.40;67.70
8422;DHT22;4248;48.196;10.924;2023-11-19T07:34:05;11.50;67.60
8422;DHT22;4248;48.196;10.924;2023-11-19T07:36:32;11.50;67.60
8422;DHT22;4248;48.196;10.924;2023-11-19T07:38:58;11.50;66.70
8422;DHT22;4248;48.196;10.924;2023-11-19T07:41:24;11.50;67.80
8422;DHT22;4248;48.196;10.924;2023-11-19T07:43:50;11.50;67.60
8422;DHT22;4248;48.196;10.924;2023-11-19T07:48:45;11.60;66.70
8422;DHT22;4248;48.196;10.924;2023-11-19T07:51:12;11.60;67.70
8422;DHT22;4248;48.196;10.924;2023-11-19T07:53:39;11.70;67.70
8422;DHT22;4248;48.196;10.924;2023-11-19T07:56:06;11.70;67.60
8422;DHT22;4248;48.196;10.924;2023-11-19T07:58:32;11.80;66.40
8422;DHT22;4248;48.196;10.924;2023-11-19T08:00:58;11.80;67.50
8422;DHT22;4248;48.196;10.924;2023-11-19T08:03:23;11.80;66.40
8422;DHT22;4248;48.196;10.924;2023-11-19T08:05:49;11.90;66.30
8422;DHT22;4248;48.196;10.924;2023-11-19T08:08:15;12.00;66.50
8422;DHT22;4248;48.196;10.924;2023-11-19T08:10:41;12.00;67.40
8422;DHT22;4248;48.196;10.924;2023-11-19T08:13:06;12.10;67.20
8422;DHT22;4248;48.196;10.924;2023-11-19T08:15:33;12.10;67.20
8422;DHT22;4248;48.196;10.924;2023-11-19T08:17:58;12.20;66.40
8422;DHT22;4248;48.196;10.924;2023-11-19T08:20:24;12.10;67.30
8422;DHT22;4248;48.196;10.924;2023-11-19T08:22:50;13.20;68.20
8422;DHT22;4248;48.196;10.924;2023-11-19T08:25:15;13.90;68.80
8422;DHT22;4248;48.196;10.924;2023-11-19T08:27:41;12.20;67.10
8422;DHT22;4248;48.196;10.924;2023-11-19T08:30:07;12.30;66.20
8422;DHT22;4248;48.196;10.924;2023-11-19T08:32:34;12.40;67.20
8422;DHT22;4248;48.196;10.924;2023-11-19T08:35:00;12.40;67.10
8422;DHT22;4248;48.196;10.924;2023-11-19T08:37:25;12.50;67.20
8422;DHT22;4248;48.196;10.924;2023-11-19T08:39:51;12.40;66.20
8422;DHT22;4248;48.196;10.924;2023-11-19T08:42:17;12.50;67.50
8422;DHT22;4248;48.196;10.924;2023-11-19T08:44:43;12.50;67.50
8422;DHT22;4248;48.196;10.924;2023-11-19T08:47:12;12.40;67.20
8422;DHT22;4248;48.196;10.924;2023-11-19T08:49:38;12.50;66.40
8422;DHT22;4248;48.196;10.924;2023-11-19T08:52:05;12.50;67.40
8422;DHT22;4248;48.196;10.924;2023-11-19T08:54:32;12.50;67.30
8422;DHT22;4248;48.196;10.924;2023-11-19T08:56:58;12.80;67.40
8422;DHT22;4248;48.196;10.924;2023-11-19T08:59:24;12.50;66.40
8422;DHT22;4248;48.196;10.924;2023-11-19T09:01:50;12.50;67.30
8422;DHT22;4248;48.196;10.924;2023-11-19T09:04:16;12.60;67.60
8422;DHT22;4248;48.196;10.924;2023-11-19T09:06:41;12.40;66.40
8422;DHT22;4248;48.196;10.924;2023-11-19T09:09:08;12.50;66.60
8422;DHT22;4248;48.196;10.924;2023-11-19T09:11:33;12.50;67.50
8422;DHT22;4248;48.196;10.924;2023-11-19T09:13:59;12.50;67.10
8422;DHT22;4248;48.196;10.924;2023-11-19T09:16:25;12.60;66.90
8422;DHT22;4248;48.196;10.924;2023-11-19T09:18:50;12.80;66.00
8422;DHT22;4248;48.196;10.924;2023-11-19T09:21:16;12.80;67.10
8422;DHT22;4248;48.196;10.924;2023-11-19T09:23:42;12.90;67.10
8422;DHT22;4248;48.196;10.924;2023-11-19T09:26:10;13.00;66.60
8422;DHT22;4248;48.196;10.924;2023-11-19T09:28:36;13.40;65.10
8422;DHT22;4248;48.196;10.924;2023-11-19T09:35:56;13.50;64.90
8422;DHT22;4248;48.196;10.924;2023-11-19T09:38:23;13.50;64.90
8422;DHT22;4248;48.196;10.924;2023-11-19T09:40:48;13.50;66.00
8422;DHT22;4248;48.196;10.924;2023-11-19T09:43:15;13.50;66.10
8422;DHT22;4248;48.196;10.924;2023-11-19T09:45:50;13.50;66.30
8422;DHT22;4248;48.196;10.924;2023-11-19T09:48:19;13.70;65.40
8422;DHT22;4248;48.196;10.924;2023-11-19T09:50:48;13.70;66.20
8422;DHT22;4248;48.196;10.924;2023-11-19T09:53:15;13.90;65.90
8422;DHT22;4248;48.196;10.924;2023-11-19T09:55:45;14.00;65.70
8422;DHT22;4248;48.196;10.924;2023-11-19T09:58:12;14.30;64.70
8422;DHT22;4248;48.196;10.924;2023-11-19T10:00:40;14.30;65.40
8422;DHT22;4248;48.196;10.924;2023-11-19T10:03:07;14.50;65.10
8422;DHT22;4248;48.196;10.924;2023-11-19T10:05:34;14.50;65.10
8422;DHT22;4248;48.196;10.924;2023-11-19T10:08:01;14.60;64.00
8422;DHT22;4248;48.196;10.924;2023-11-19T10:10:28;14.60;65.10
8422;DHT22;4248;48.196;10.924;2023-11-19T10:12:55;14.60;65.00
8422;DHT22;4248;48.196;10.924;2023-11-19T10:15:22;14.60;64.90
8422;DHT22;4248;48.196;10.924;2023-11-19T10:17:48;14.50;65.20
8422;DHT22;4248;48.196;10.924;2023-11-19T10:20:13;14.40;64.30
8422;DHT22;4248;48.196;10.924;2023-11-19T10:22:39;14.50;65.10
8422;DHT22;4248;48.196;10.924;2023-11-19T10:25:15;14.60;65.00
8422;DHT22;4248;48.196;10.924;2023-11-19T10:27:46;14.60;64.80
8422;DHT22;4248;48.196;10.924;2023-11-19T10:30:12;14.50;63.70
8422;DHT22;4248;48.196;10.924;2023-11-19T10:32:38;14.40;65.00
8422;DHT22;4248;48.196;10.924;2023-11-19T10:35:06;14.50;65.10
8422;DHT22;4248;48.196;10.924;2023-11-19T10:37:32;14.60;64.80
8422;DHT22;4248;48.196;10.924;2023-11-19T10:40:00;14.80;63.10
8422;DHT22;4248;48.196;10.924;2023-11-19T10:42:26;14.90;64.10
8422;DHT22;4248;48.196;10.924;2023-11-19T10:44:51;14.80;64.00
8422;DHT22;4248;48.196;10.924;2023-11-19T10:47:19;14.90;62.60
8422;DHT22;4248;48.196;10.924;2023-11-19T10:49:45;15.00;62.40
8422;DHT22;4248;48.196;10.924;2023-11-19T10:52:12;15.10;63.30
8422;DHT22;4248;48.196;10.924;2023-11-19T10:54:44;15.30;62.90
8422;DHT22;4248;48.196;10.924;2023-11-19T10:57:12;15.60;62.50
8422;DHT22;4248;48.196;10.924;2023-11-19T10:59:45;15.60;60.90
8422;DHT22;4248;48.196;10.924;2023-11-19T11:02:14;15.50;62.10
8422;DHT22;4248;48.196;10.924;2023-11-19T11:04:45;15.40;62.40
8422;DHT22;4248;48.196;10.924;2023-11-19T11:07:14;15.40;62.20
8422;DHT22;4248;48.196;10.924;2023-11-19T11:09:41;15.40;61.20
8422;DHT22;4248;48.196;10.924;2023-11-19T11:12:08;15.40;62.40
8422;DHT22;4248;48.196;10.924;2023-11-19T11:14:37;15.50;62.10
8422;DHT22;4248;48.196;10.924;2023-11-19T11:17:06;15.60;62.00
8422;DHT22;4248;48.196;10.924;2023-11-19T11:19:33;15.40;60.80
8422;DHT22;4248;48.196;10.924;2023-11-19T11:22:00;15.40;62.10
8422;DHT22;4248;48.196;10.924;2023-11-19T11:24:41;15.40;62.30
8422;DHT22;4248;48.196;10.924;2023-11-19T11:27:36;15.40;62.20
8422;DHT22;4248;48.196;10.924;2023-11-19T11:38:41;16.10;59.30
8422;DHT22;4248;48.196;10.924;2023-11-19T11:41:25;15.70;60.00
8422;DHT22;4248;48.196;10.924;2023-11-19T11:43:52;15.70;61.00
8422;DHT22;4248;48.196;10.924;2023-11-19T11:49:01;15.00;61.70
8422;DHT22;4248;48.196;10.924;2023-11-19T11:54:25;14.80;62.90
8422;DHT22;4248;48.196;10.924;2023-11-19T11:59:46;15.30;60.70
8422;DHT22;4248;48.196;10.924;2023-11-19T12:02:14;15.40;61.60
8422;DHT22;4248;48.196;10.924;2023-11-19T12:04:40;15.70;61.00
8422;DHT22;4248;48.196;10.924;2023-11-19T12:07:14;15.50;60.50
8422;DHT22;4248;48.196;10.924;2023-11-19T12:09:47;15.40;60.40
8422;DHT22;4248;48.196;10.924;2023-11-19T12:15:02;15.00;61.10
8422;DHT22;4248;48.196;10.924;2023-11-19T12:20:00;15.40;59.10
8422;DHT22;4248;48.196;10.924;2023-11-19T12:22:29;15.50;60.20
8422;DHT22;4248;48.196;10.924;2023-11-19T12:24:55;15.50;60.10
8422;DHT22;4248;48.196;10.924;2023-11-19T12:27:21;15.70;59.60
8422;DHT22;4248;48.196;10.924;2023-11-19T12:29:51;16.00;59.10
8422;DHT22;4248;48.196;10.924;2023-11-19T12:32:17;16.00;57.20
8422;DHT22;4248;48.196;10.924;2023-11-19T12:34:42;16.10;55.00
8422;DHT22;4248;48.196;10.924;2023-11-19T12:37:09;16.30;53.40
8422;DHT22;4248;48.196;10.924;2023-11-19T12:39:35;16.30;52.50
8422;DHT22;4248;48.196;10.924;2023-11-19T12:42:01;16.30;52.10
8422;DHT22;4248;48.196;10.924;2023-11-19T12:44:27;16.20;52.20
8422;DHT22;4248;48.196;10.924;2023-11-19T12:47:06;16.10;52.40
8422;DHT22;4248;48.196;10.924;2023-11-19T12:49:32;15.90;51.60
8422;DHT22;4248;48.196;10.924;2023-11-19T12:51:58;15.80;54.00
8422;DHT22;4248;48.196;10.924;2023-11-19T12:54:34;15.60;53.00
8422;DHT22;4248;48.196;10.924;2023-11-19T12:57:00;15.50;51.70
8422;DHT22;4248;48.196;10.924;2023-11-19T12:59:26;15.50;53.00
8422;DHT22;4248;48.196;10.924;2023-11-19T13:01:56;15.40;52.20
8422;DHT22;4248;48.196;10.924;2023-11-19T13:04:22;15.40;52.70
8422;DHT22;4248;48.196;10.924;2023-11-19T13:06:49;15.40;52.60
8422;DHT22;4248;48.196;10.924;2023-11-19T13:09:25;15.40;52.40
8422;DHT22;4248;48.196;10.924;2023-11-19T13:11:51;15.40;52.20
8422;DHT22;4248;48.196;10.924;2023-11-19T13:14:18;15.30;51.90
8422;DHT22;4248;48.196;10.924;2023-11-19T13:16:44;15.20;52.00
8422;DHT22;4248;48.196;10.924;2023-11-19T13:19:12;15.20;51.30
8422;DHT22;4248;48.196;10.924;2023-11-19T13:21:38;15.20;52.50
8422;DHT22;4248;48.196;10.924;2023-11-19T13:24:05;15.20;52.20
8422;DHT22;4248;48.196;10.924;2023-11-19T13:26:31;15.20;52.20
8422;DHT22;4248;48.196;10.924;2023-11-19T13:28:57;15.10;52.00
8422;DHT22;4248;48.196;10.924;2023-11-19T13:31:22;15.00;52.00
8422;DHT22;4248;48.196;10.924;2023-11-19T13:33:48;14.80;52.20
8422;DHT22;4248;48.196;10.924;2023-11-19T13:36:14;14.90;52.80
8422;DHT22;4248;48.196;10.924;2023-11-19T13:38:39;14.60;54.00
8422;DHT22;4248;48.196;10.924;2023-11-19T13:41:07;14.50;54.60
8422;DHT22;4248;48.196;10.924;2023-11-19T13:43:35;14.40;55.60
8422;DHT22;4248;48.196;10.924;2023-11-19T13:46:01;14.40;55.70
8422;DHT22;4248;48.196;10.924;2023-11-19T13:48:26;14.40;54.60
8422;DHT22;4248;48.196;10.924;2023-11-19T13:50:54;14.40;55.70
8422;DHT22;4248;48.196;10.924;2023-11-19T13:53:20;14.40;54.60
8422;DHT22;4248;48.196;10.924;2023-11-19T13:55:46;14.20;55.50
8422;DHT22;4248;48.196;10.924;2023-11-19T13:58:11;14.10;54.70
8422;DHT22;4248;48.196;10.924;2023-11-19T14:00:37;14.20;55.50
8422;DHT22;4248;48.196;10.924;2023-11-19T14:03:03;14.50;55.80
8422;DHT22;4248;48.196;10.924;2023-11-19T14:05:29;14.60;55.20
8422;DHT22;4248;48.196;10.924;2023-11-19T14:07:54;14.60;54.80
8422;DHT22;4248;48.196;10.924;2023-11-19T14:10:22;14.60;53.90
8422;DHT22;4248;48.196;10.924;2023-11-19T14:12:48;14.40;55.50
8422;DHT22;4248;48.196;10.924;2023-11-19T14:15:15;14.30;55.60
8422;DHT22;4248;48.196;10.924;2023-11-19T14:17:43;14.30;55.60
8422;DHT22;4248;48.196;10.924;2023-11-19T14:20:10;14.10;54.40
8422;DHT22;4248;48.196;10.924;2023-11-19T14:22:45;14.00;55.40
8422;DHT22;4248;48.196;10.924;2023-11-19T14:25:14;14.10;55.40
8422;DHT22;4248;48.196;10.924;2023-11-19T14:27:41;13.90;55.90
8422;DHT22;4248;48.196;10.924;2023-11-19T14:30:09;13.90;55.10
8422;DHT22;4248;48.196;10.924;2023-11-19T14:32:36;13.80;56.40
8422;DHT22;4248;48.196;10.924;2023-11-19T14:35:03;13.70;56.60
8422;DHT22;4248;48.196;10.924;2023-11-19T14:37:29;13.70;56.80
8422;DHT22;4248;48.196;10.924;2023-11-19T14:39:56;13.60;55.80
8422;DHT22;4248;48.196;10.924;2023-11-19T14:42:23;13.50;56.00
8422;DHT22;4248;48.196;10.924;2023-11-19T14:44:50;13.50;57.30
8422;DHT22;4248;48.196;10.924;2023-11-19T14:47:18;13.40;57.60
8422;DHT22;4248;48.196;10.924;2023-11-19T14:49:43;13.30;57.00
8422;DHT22;4248;48.196;10.924;2023-11-19T14:52:09;13.20;58.20
8422;DHT22;4248;48.196;10.924;2023-11-19T14:57:01;13.10;57.70
8422;DHT22;4248;48.196;10.924;2023-11-19T14:59:28;13.00;59.00
8422;DHT22;4248;48.196;10.924;2023-11-19T15:01:54;12.90;59.30
8422;DHT22;4248;48.196;10.924;2023-11-19T15:04:19;12.80;59.50
8422;DHT22;4248;48.196;10.924;2023-11-19T15:06:45;12.70;59.80
8422;DHT22;4248;48.196;10.924;2023-11-19T15:09:11;12.70;59.40
8422;DHT22;4248;48.196;10.924;2023-11-19T15:11:42;12.60;60.40
8422;DHT22;4248;48.196;10.924;2023-11-19T15:14:08;12.60;60.40
8422;DHT22;4248;48.196;10.924;2023-11-19T15:16:33;12.50;60.50
8422;DHT22;4248;48.196;10.924;2023-11-19T15:19:00;12.50;60.00
8422;DHT22;4248;48.196;10.924;2023-11-19T15:21:28;12.40;61.00
8422;DHT22;4248;48.196;10.924;2023-11-19T15:23:55;12.30;61.20
8422;DHT22;4248;48.196;10.924;2023-11-19T15:26:21;12.30;61.40
8422;DHT22;4248;48.196;10.924;2023-11-19T15:28:47;12.20;61.70
8422;DHT22;4248;48.196;10.924;2023-11-19T15:31:12;12.10;60.80
8422;DHT22;4248;48.196;10.924;2023-11-19T15:33:40;12.10;62.20
8422;DHT22;4248;48.196;10.924;2023-11-19T15:36:06;12.00;62.50
8422;DHT22;4248;48.196;10.924;2023-11-19T15:38:33;12.00;61.60
8422;DHT22;4248;48.196;10.924;2023-11-19T15:40:59;12.00;62.70
8422;DHT22;4248;48.196;10.924;2023-11-19T15:43:24;12.10;62.30
8422;DHT22;4248;48.196;10.924;2023-11-19T15:45:50;12.20;62.00
8422;DHT22;4248;48.196;10.924;2023-11-19T15:48:15;13.60;62.30
8422;DHT22;4248;48.196;10.924;2023-11-19T15:50:41;12.20;62.10
8422;DHT22;4248;48.196;10.924;2023-11-19T15:53:10;12.10;62.20
8422;DHT22;4248;48.196;10.924;2023-11-19T15:55:35;12.10;62.50
8422;DHT22;4248;48.196;10.924;2023-11-19T15:58:01;12.00;62.80
8422;DHT22;4248;48.196;10.924;2023-11-19T16:00:26;11.90;62.10
8422;DHT22;4248;48.196;10.924;2023-11-19T16:02:52;11.90;63.60
8422;DHT22;4248;48.196;10.924;2023-11-19T16:05:19;11.80;63.80
8422;DHT22;4248;48.196;10.924;2023-11-19T16:07:44;11.80;65.30
8422;DHT22;4248;48.196;10.924;2023-11-19T16:10:10;11.80;63.30
8422;DHT22;4248;48.196;10.924;2023-11-19T16:12:38;11.70;64.70
8422;DHT22;4248;48.196;10.924;2023-11-19T16:15:05;11.60;64.80
8422;DHT22;4248;48.196;10.924;2023-11-19T16:17:31;11.60;65.10
8422;DHT22;4248;48.196;10.924;2023-11-19T16:19:57;11.50;64.70
8422;DHT22;4248;48.196;10.924;2023-11-19T16:22:22;11.50;65.80